Time;durP1;ratioP1;P1;durP2;ratioP2;P2;SDS_P1;SDS_P2;PMS_P1;PMS_P2;Temp;Humidity;BMP_temperature;BMP_pressure;BME280_temperature;BME280_humidity;BME280_pressure;Samples;Min_cycle;Max_cycle;Signal;HPM_P1;HPM_P2
2023/04/15 00:01:17;;;;;;;4.35;2.42;;;6.00;98.40;;;;;;5081050;28;20696;-70
2023/04/15 00:03:45;;;;;;;5.60;3.25;;;6.00;98.60;;;;;;5095643;28;20219;-70
2023/04/15 00:06:12;;;;;;;5.70;4.88;;;6.00;98.80;;;;;;5096092;28;20192;-70
2023/04/15 00:08:39;;;;;;;8.40;3.63;;;6.10;98.70;;;;;;5095295;28;20208;-70
2023/04/15 00:11:06;;;;;;;6.60;2.92;;;6.10;98.70;;;;;;5091632;28;20186;-70
2023/04/15 00:13:34;;;;;;;5.13;3.15;;;6.10;98.50;;;;;;5075495;28;20254;-71
2023/04/15 00:16:02;;;;;;;3.83;2.13;;;6.10;98.10;;;;;;5078348;28;20524;-69
2023/04/15 00:18:30;;;;;;;6.65;2.60;;;6.10;98.00;;;;;;5095700;28;20197;-69
2023/04/15 00:20:57;;;;;;;6.10;2.30;;;6.10;98.00;;;;;;5095340;28;20243;-69
2023/04/15 00:23:24;;;;;;;5.95;3.17;;;6.10;98.30;;;;;;5095701;28;20724;-69
2023/04/15 00:25:52;;;;;;;3.20;2.00;;;6.10;98.30;;;;;;5095001;28;20542;-69
2023/04/15 00:28:19;;;;;;;5.10;2.90;;;6.10;98.30;;;;;;5095402;28;20225;-70
2023/04/15 00:30:47;;;;;;;5.15;2.15;;;6.10;98.30;;;;;;5095284;28;20235;-70
2023/04/15 00:33:16;;;;;;;3.95;2.75;;;6.10;98.30;;;;;;5095282;28;20189;-69
2023/04/15 00:35:43;;;;;;;4.47;2.90;;;6.10;98.40;;;;;;5095099;28;20189;-73
2023/04/15 00:38:10;;;;;;;5.50;2.55;;;6.00;98.50;;;;;;5095139;28;20189;-70
2023/04/15 00:40:38;;;;;;;5.30;2.47;;;6.00;98.50;;;;;;5095622;28;20648;-69
2023/04/15 00:43:05;;;;;;;4.70;2.67;;;6.00;98.50;;;;;;5094894;28;20605;-70
2023/04/15 00:45:33;;;;;;;4.60;2.13;;;6.00;98.40;;;;;;5095266;28;20197;-70
2023/04/15 00:48:00;;;;;;;4.82;2.30;;;6.00;98.40;;;;;;5094397;28;20262;-69
2023/04/15 00:50:28;;;;;;;7.97;2.25;;;6.00;97.90;;;;;;5094998;28;20317;-70
2023/04/15 00:52:56;;;;;;;6.45;2.05;;;6.00;97.80;;;;;;5094622;28;20181;-69
2023/04/15 00:55:23;;;;;;;4.25;2.08;;;6.00;97.80;;;;;;5095036;28;20193;-70
2023/04/15 00:57:50;;;;;;;4.05;1.95;;;6.00;97.60;;;;;;5094274;28;20259;-70
2023/04/15 01:00:19;;;;;;;8.75;2.75;;;6.00;97.50;;;;;;5094217;28;20217;-70
2023/04/15 01:02:46;;;;;;;5.65;2.60;;;6.00;97.60;;;;;;5094630;28;20191;-69
2023/04/15 01:05:16;;;;;;;5.10;3.17;;;6.00;97.60;;;;;;5093817;28;20552;-70
2023/04/15 01:07:44;;;;;;;5.78;2.40;;;6.00;97.60;;;;;;5094833;28;20240;-70
2023/04/15 01:10:11;;;;;;;6.25;2.35;;;6.00;97.90;;;;;;5094325;28;20186;-70
2023/04/15 01:12:39;;;;;;;4.32;2.40;;;6.00;97.80;;;;;;5094303;28;20190;-69
2023/04/15 01:15:08;;;;;;;7.68;2.05;;;6.10;97.90;;;;;;5094388;28;20267;-69
2023/04/15 01:17:36;;;;;;;6.45;2.55;;;6.10;97.90;;;;;;5094714;28;20193;-69
2023/04/15 01:20:04;;;;;;;7.68;2.10;;;6.10;98.00;;;;;;5094052;28;20716;-69
2023/04/15 01:22:33;;;;;;;4.30;2.20;;;6.10;98.00;;;;;;5093821;28;20188;-69
2023/04/15 01:25:07;;;;;;;4.97;2.10;;;6.10;97.70;;;;;;5093657;28;20184;-69
2023/04/15 01:27:37;;;;;;;4.18;2.60;;;6.10;97.70;;;;;;5094275;28;20280;-70
2023/04/15 01:30:05;;;;;;;4.32;2.83;;;6.10;97.50;;;;;;5093675;28;20266;-69
2023/04/15 01:32:33;;;;;;;5.47;2.45;;;6.10;97.30;;;;;;5093923;28;20192;-70
2023/04/15 01:35:00;;;;;;;4.60;2.20;;;6.10;97.40;;;;;;5093734;28;20188;-69
2023/04/15 01:37:27;;;;;;;4.00;2.40;;;6.20;97.60;;;;;;5094179;28;20193;-69
2023/04/15 01:39:56;;;;;;;4.03;2.58;;;6.20;97.80;;;;;;5093417;28;20260;-69
2023/04/15 01:42:23;;;;;;;3.53;2.00;;;6.20;98.00;;;;;;5093450;28;20228;-70
2023/04/15 01:44:52;;;;;;;5.55;2.47;;;6.10;98.10;;;;;;5093623;28;20585;-70
2023/04/15 01:47:19;;;;;;;3.20;2.10;;;6.10;98.20;;;;;;5093857;28;20300;-69
2023/04/15 01:49:46;;;;;;;3.33;2.30;;;6.20;98.10;;;;;;5093355;28;20209;-69
2023/04/15 01:52:14;;;;;;;3.03;2.30;;;6.20;98.00;;;;;;5093505;28;20193;-70
2023/04/15 01:54:41;;;;;;;4.20;2.28;;;6.20;97.90;;;;;;5093632;28;20188;-70
2023/04/15 01:57:08;;;;;;;4.35;2.97;;;6.20;97.80;;;;;;5093995;28;20192;-69
2023/04/15 01:59:36;;;;;;;4.72;2.58;;;6.20;97.90;;;;;;5093040;28;20575;-69
2023/04/15 02:02:05;;;;;;;4.45;2.42;;;6.20;98.10;;;;;;5093240;28;20185;-70
2023/04/15 02:04:33;;;;;;;6.10;2.30;;;6.20;98.00;;;;;;5093321;28;20227;-70
2023/04/15 02:07:00;;;;;;;5.43;2.67;;;6.20;98.20;;;;;;5073482;28;20190;-70
2023/04/15 02:09:27;;;;;;;4.15;2.20;;;6.20;98.40;;;;;;5073228;28;20308;-69
2023/04/15 02:11:54;;;;;;;4.90;2.40;;;6.10;98.40;;;;;;5091937;28;20239;-70
2023/04/15 02:14:21;;;;;;;2.53;1.50;;;6.20;98.50;;;;;;5093423;28;20651;-69
2023/04/15 02:16:48;;;;;;;3.00;1.73;;;6.20;98.00;;;;;;5092564;28;20593;-69
2023/04/15 02:19:17;;;;;;;4.28;2.00;;;6.10;97.80;;;;;;5093316;28;20185;-70
2023/04/15 02:21:44;;;;;;;3.55;2.13;;;6.10;97.50;;;;;;5091895;28;20181;-70
2023/04/15 02:24:11;;;;;;;3.17;1.83;;;6.10;96.90;;;;;;5093475;28;20291;-70
2023/04/15 02:26:38;;;;;;;3.83;1.55;;;6.10;96.70;;;;;;5093040;28;20217;-70
2023/04/15 02:29:05;;;;;;;3.17;1.70;;;6.00;96.30;;;;;;5092827;28;20687;-70
2023/04/15 02:31:35;;;;;;;5.28;1.80;;;6.10;96.00;;;;;;5091983;28;20185;-69
2023/04/15 02:34:03;;;;;;;2.33;1.25;;;6.00;96.00;;;;;;5092858;28;20239;-69
2023/04/15 02:36:33;;;;;;;5.25;1.83;;;6.00;96.00;;;;;;5093042;28;20201;-70
2023/04/15 02:39:00;;;;;;;26.40;12.68;;;6.00;96.00;;;;;;5092801;28;20238;-70
2023/04/15 02:41:28;;;;;;;7.80;4.20;;;6.10;96.10;;;;;;5092572;28;20196;-69
2023/04/15 02:43:56;;;;;;;3.22;2.10;;;6.00;95.80;;;;;;5092915;28;20189;-69
2023/04/15 02:46:23;;;;;;;3.85;1.73;;;6.10;95.80;;;;;;5093154;28;20189;-70
2023/04/15 02:48:52;;;;;;;3.30;2.17;;;6.10;96.00;;;;;;5092375;28;20213;-70
2023/04/15 02:51:21;;;;;;;2.80;1.85;;;6.10;96.20;;;;;;5072735;28;20376;-69
2023/04/15 02:53:50;;;;;;;3.97;1.60;;;6.10;96.60;;;;;;5072810;28;20185;-70
2023/04/15 02:56:18;;;;;;;2.70;1.60;;;6.10;96.50;;;;;;5092929;28;20188;-69
2023/04/15 02:58:45;;;;;;;3.00;1.40;;;6.10;96.70;;;;;;5092497;28;20227;-70
2023/04/15 03:01:12;;;;;;;6.88;2.22;;;6.10;97.00;;;;;;5092593;28;20192;-69
2023/04/15 03:03:40;;;;;;;2.60;1.83;;;6.00;97.10;;;;;;5092749;28;20193;-69
2023/04/15 03:06:07;;;;;;;3.38;2.13;;;6.00;97.20;;;;;;5092215;28;20193;-69
2023/04/15 03:08:35;;;;;;;4.18;1.88;;;6.00;97.20;;;;;;5092484;28;20303;-70
2023/04/15 03:11:04;;;;;;;3.05;1.70;;;5.90;97.30;;;;;;5092163;28;20257;-69
2023/04/15 03:13:31;;;;;;;2.80;1.33;;;5.90;97.30;;;;;;5092328;28;20250;-69
2023/04/15 03:15:58;;;;;;;5.25;2.20;;;5.90;97.20;;;;;;5092744;28;20210;-69
2023/04/15 03:18:25;;;;;;;2.97;1.30;;;5.90;97.00;;;;;;5092358;28;20189;-70
2023/04/15 03:20:52;;;;;;;3.35;1.92;;;5.90;96.90;;;;;;5091936;28;20271;-73
2023/04/15 03:23:19;;;;;;;6.25;2.00;;;5.80;96.80;;;;;;5092338;28;20640;-70
2023/04/15 03:25:46;;;;;;;7.43;1.90;;;5.80;96.80;;;;;;5092244;28;20196;-70
2023/04/15 03:28:15;;;;;;;4.38;2.25;;;5.80;96.80;;;;;;5095075;28;20188;-70
2023/04/15 03:30:42;;;;;;;4.25;1.88;;;5.80;96.80;;;;;;5096243;28;20191;-70
2023/04/15 03:33:09;;;;;;;4.15;1.75;;;5.70;96.80;;;;;;5096474;28;20196;-70
2023/04/15 03:35:36;;;;;;;2.80;1.45;;;5.80;96.90;;;;;;5096072;28;20192;-69
2023/04/15 03:38:03;;;;;;;3.17;1.52;;;5.70;96.90;;;;;;5096209;28;20192;-69
2023/04/15 03:40:30;;;;;;;3.17;1.63;;;5.70;97.10;;;;;;5095712;28;20212;-69
2023/04/15 03:42:57;;;;;;;2.30;1.55;;;5.70;97.20;;;;;;5096078;28;20189;-69
2023/04/15 03:45:26;;;;;;;3.38;1.60;;;5.70;97.20;;;;;;5095627;28;20689;-69
2023/04/15 03:47:53;;;;;;;3.50;1.73;;;5.70;97.20;;;;;;5095802;28;20712;-69
2023/04/15 03:50:20;;;;;;;2.45;1.40;;;5.60;97.10;;;;;;5095363;28;20216;-69
2023/04/15 03:52:47;;;;;;;3.45;1.80;;;5.60;97.10;;;;;;5095821;28;20181;-69
2023/04/15 03:55:15;;;;;;;3.67;2.10;;;5.60;97.10;;;;;;5095791;28;20193;-70
2023/04/15 03:57:42;;;;;;;3.30;1.60;;;5.60;97.30;;;;;;5095720;28;20181;-70
2023/04/15 04:00:10;;;;;;;2.65;1.88;;;5.60;97.40;;;;;;5095188;28;20282;-70
2023/04/15 04:02:39;;;;;;;3.47;2.00;;;5.60;97.50;;;;;;5095636;28;20268;-70
2023/04/15 04:05:07;;;;;;;2.90;1.70;;;5.50;97.80;;;;;;5095625;28;20663;-70
2023/04/15 04:07:34;;;;;;;3.78;2.38;;;5.50;97.90;;;;;;5095253;28;20720;-69
2023/04/15 04:10:02;;;;;;;4.95;2.45;;;5.50;98.00;;;;;;5095182;28;20270;-69
2023/04/15 04:12:29;;;;;;;5.53;3.15;;;5.50;97.80;;;;;;5095289;28;20182;-69
2023/04/15 04:14:56;;;;;;;4.50;2.75;;;5.60;97.10;;;;;;5095681;28;20192;-69
2023/04/15 04:17:23;;;;;;;12.35;6.30;;;5.50;97.30;;;;;;5095471;28;20185;-69
2023/04/15 04:19:52;;;;;;;11.95;6.57;;;5.50;97.20;;;;;;5094768;28;20647;-69
2023/04/15 04:22:22;;;;;;;3.80;2.30;;;5.40;97.30;;;;;;5095142;28;20577;-70
2023/04/15 04:24:49;;;;;;;3.95;2.13;;;5.40;97.40;;;;;;5095448;28;20189;-69
2023/04/15 04:27:16;;;;;;;3.55;1.55;;;5.40;97.40;;;;;;5094951;28;22025;-70
2023/04/15 04:29:46;;;;;;;3.70;1.77;;;5.40;97.00;;;;;;5094748;28;20300;-70
2023/04/15 04:32:13;;;;;;;4.07;1.55;;;5.40;97.00;;;;;;5094939;28;20243;-69
2023/04/15 04:34:40;;;;;;;2.90;1.40;;;5.40;97.00;;;;;;5095100;28;20189;-70
2023/04/15 04:37:09;;;;;;;2.97;1.55;;;5.30;97.00;;;;;;5094935;28;20185;-71
2023/04/15 04:39:36;;;;;;;3.00;1.73;;;5.30;97.10;;;;;;5094217;28;20268;-69
2023/04/15 04:42:03;;;;;;;4.05;1.40;;;5.30;97.30;;;;;;5095325;28;20519;-69
2023/04/15 04:44:30;;;;;;;2.80;1.35;;;5.30;97.30;;;;;;5094649;28;20275;-70
2023/04/15 04:46:57;;;;;;;2.22;1.38;;;5.30;97.40;;;;;;5095258;28;20203;-70
2023/04/15 04:49:24;;;;;;;7.60;1.58;;;5.40;97.40;;;;;;5094261;28;20217;-72
2023/04/15 04:51:52;;;;;;;2.90;1.63;;;5.40;97.50;;;;;;5094854;28;20216;-70
2023/04/15 04:54:21;;;;;;;2.63;1.63;;;5.40;97.40;;;;;;5094565;28;20197;-69
2023/04/15 04:56:48;;;;;;;4.00;1.58;;;5.50;97.60;;;;;;5094849;28;20188;-69
2023/04/15 04:59:15;;;;;;;3.65;1.20;;;5.50;97.20;;;;;;5094297;28;20220;-70
2023/04/15 05:01:42;;;;;;;4.32;2.55;;;5.50;97.00;;;;;;5094248;28;20717;-70
2023/04/15 05:04:10;;;;;;;2.30;1.20;;;5.50;97.20;;;;;;5094751;28;20189;-69
2023/04/15 05:06:37;;;;;;;4.15;1.60;;;5.60;97.00;;;;;;5092431;28;20551;-70
2023/04/15 05:09:04;;;;;;;2.88;1.70;;;5.60;97.20;;;;;;5094205;28;20224;-70
2023/04/15 05:11:33;;;;;;;3.30;1.40;;;5.60;97.20;;;;;;5093358;28;20193;-71
2023/04/15 05:14:01;;;;;;;3.13;1.50;;;5.60;97.40;;;;;;5093875;28;20190;-69
2023/04/15 05:16:28;;;;;;;2.90;1.77;;;5.60;97.50;;;;;;5094524;28;20189;-70
2023/04/15 05:18:55;;;;;;;2.95;1.42;;;5.70;97.70;;;;;;5093759;28;20192;-70
2023/04/15 05:21:22;;;;;;;3.55;1.85;;;5.70;97.70;;;;;;5094569;28;20246;-70
2023/04/15 05:23:50;;;;;;;2.75;1.40;;;5.70;97.70;;;;;;5093912;28;20192;-70
2023/04/15 05:26:17;;;;;;;3.60;1.50;;;5.80;97.70;;;;;;5094416;28;20590;-69
2023/04/15 05:28:46;;;;;;;2.50;1.45;;;5.80;97.70;;;;;;5092862;28;20558;-70
2023/04/15 05:31:18;;;;;;;1.88;1.05;;;5.80;97.90;;;;;;5093425;28;20250;-70
2023/04/15 05:33:45;;;;;;;4.22;1.48;;;5.90;98.00;;;;;;5093004;28;20200;-69
2023/04/15 05:36:12;;;;;;;3.33;1.65;;;6.00;98.20;;;;;;5093944;28;20560;-69
2023/04/15 05:38:39;;;;;;;5.18;2.17;;;6.10;98.20;;;;;;5093362;28;20181;-70
2023/04/15 05:41:07;;;;;;;4.25;2.58;;;6.10;98.10;;;;;;5094003;28;20189;-69
2023/04/15 05:43:34;;;;;;;5.38;1.70;;;6.30;98.30;;;;;;5093370;28;20181;-69
2023/04/15 05:46:02;;;;;;;2.90;1.30;;;6.40;98.20;;;;;;5093714;28;20279;-70
2023/04/15 05:48:30;;;;;;;2.88;1.40;;;6.50;97.80;;;;;;5093323;28;20193;-70
2023/04/15 05:50:57;;;;;;;3.05;1.50;;;6.60;97.40;;;;;;5092648;28;20233;-69
2023/04/15 05:53:24;;;;;;;2.47;1.42;;;6.70;97.20;;;;;;5093312;28;20246;-69
2023/04/15 05:55:51;;;;;;;2.72;1.60;;;6.70;96.90;;;;;;5093749;28;20643;-69
2023/04/15 05:58:18;;;;;;;3.65;1.92;;;6.80;96.90;;;;;;5092791;28;20196;-70
2023/04/15 06:00:46;;;;;;;4.03;1.88;;;6.90;96.90;;;;;;5093115;28;20217;-70
2023/04/15 06:03:14;;;;;;;2.63;1.30;;;7.00;96.70;;;;;;5093198;28;20189;-70
2023/04/15 06:05:43;;;;;;;4.25;1.52;;;7.00;96.50;;;;;;5093365;28;20197;-70
2023/04/15 06:08:11;;;;;;;3.03;1.65;;;7.10;96.40;;;;;;5093464;28;20193;-70
2023/04/15 06:10:38;;;;;;;4.35;1.80;;;7.10;96.20;;;;;;5093334;28;20227;-69
2023/04/15 06:13:05;;;;;;;3.83;1.70;;;7.20;96.00;;;;;;5093240;28;20189;-69
2023/04/15 06:15:32;;;;;;;2.42;1.48;;;7.20;95.80;;;;;;5093587;28;20279;-69
2023/04/15 06:18:00;;;;;;;3.55;1.65;;;7.30;95.60;;;;;;5092670;28;20718;-70
2023/04/15 06:20:28;;;;;;;3.00;1.60;;;7.40;95.50;;;;;;5092974;28;20618;-69
2023/04/15 06:22:55;;;;;;;2.95;1.48;;;7.40;95.60;;;;;;5092997;28;20639;-70
2023/04/15 06:25:23;;;;;;;3.30;1.45;;;7.50;95.10;;;;;;5093382;28;20193;-70
2023/04/15 06:27:50;;;;;;;2.50;1.40;;;7.70;94.50;;;;;;5092955;28;20520;-70
2023/04/15 06:30:17;;;;;;;4.28;1.40;;;7.80;94.20;;;;;;5093051;28;20213;-70
2023/04/15 06:32:45;;;;;;;3.40;1.25;;;8.00;93.20;;;;;;5092875;28;20181;-70
2023/04/15 06:35:12;;;;;;;2.22;1.20;;;8.10;92.10;;;;;;5092960;28;20189;-70
2023/04/15 06:37:40;;;;;;;2.90;1.83;;;8.20;91.20;;;;;;5092446;28;20555;-70
2023/04/15 06:40:09;;;;;;;2.40;1.50;;;8.30;90.40;;;;;;5092602;28;20189;-70
2023/04/15 06:42:37;;;;;;;2.72;1.40;;;8.40;90.20;;;;;;5092953;28;20181;-69
2023/04/15 06:45:05;;;;;;;4.55;2.30;;;8.50;90.30;;;;;;5093006;28;20197;-70
2023/04/15 06:47:32;;;;;;;4.50;2.47;;;8.70;87.40;;;;;;5092745;28;20703;-69
2023/04/15 06:49:59;;;;;;;4.20;2.45;;;8.70;85.30;;;;;;5092741;28;20216;-70
2023/04/15 06:52:26;;;;;;;4.60;2.13;;;8.80;85.30;;;;;;5092366;28;20234;-70
2023/04/15 06:54:55;;;;;;;2.70;1.95;;;8.90;84.60;;;;;;5093020;28;20538;-69
2023/04/15 06:57:22;;;;;;;6.20;2.03;;;9.00;85.60;;;;;;5092427;28;20193;-69
2023/04/15 06:59:50;;;;;;;4.22;2.40;;;9.00;82.10;;;;;;5092219;28;20229;-70
2023/04/15 07:02:17;;;;;;;3.22;1.80;;;9.00;82.60;;;;;;5092006;28;20193;-70
2023/04/15 07:04:45;;;;;;;3.53;2.20;;;9.10;83.00;;;;;;5092235;28;20271;-70
2023/04/15 07:07:12;;;;;;;4.03;2.03;;;9.20;83.20;;;;;;5092438;28;20189;-71
2023/04/15 07:09:39;;;;;;;4.40;2.50;;;9.20;82.40;;;;;;5092507;28;20220;-70
2023/04/15 07:12:08;;;;;;;2.95;1.73;;;9.20;82.60;;;;;;5092317;28;20185;-72
2023/04/15 07:14:36;;;;;;;4.15;1.70;;;9.30;82.30;;;;;;5092183;28;20207;-70
2023/04/15 07:17:03;;;;;;;3.42;1.70;;;9.30;82.00;;;;;;5092516;28;20196;-70
2023/04/15 07:19:30;;;;;;;3.28;2.08;;;9.30;82.00;;;;;;5072123;28;20648;-69
2023/04/15 07:21:57;;;;;;;4.38;1.30;;;9.30;80.50;;;;;;5072133;28;20200;-69
2023/04/15 07:24:25;;;;;;;5.82;2.10;;;9.30;79.60;;;;;;5090697;28;20276;-69
2023/04/15 07:26:53;;;;;;;3.53;2.35;;;9.30;79.60;;;;;;5092418;28;20714;-69
2023/04/15 07:29:22;;;;;;;4.28;1.95;;;9.30;79.70;;;;;;5092171;28;20192;-69
2023/04/15 07:31:49;;;;;;;4.63;2.25;;;9.40;79.80;;;;;;5092576;28;20196;-70
2023/04/15 07:34:16;;;;;;;4.05;2.20;;;9.50;80.50;;;;;;5091484;28;20243;-70
2023/04/15 07:36:44;;;;;;;3.42;2.22;;;9.60;79.90;;;;;;5092628;28;20200;-69
2023/04/15 07:39:12;;;;;;;4.60;2.83;;;9.70;80.40;;;;;;5091477;28;20193;-71
2023/04/15 07:41:40;;;;;;;3.83;1.98;;;9.80;80.70;;;;;;5092578;28;20189;-71
2023/04/15 07:44:07;;;;;;;5.30;1.95;;;10.00;77.60;;;;;;5091545;28;20246;-69
2023/04/15 07:46:36;;;;;;;8.93;2.85;;;10.00;78.60;;;;;;5092423;28;20189;-69
2023/04/15 07:49:03;;;;;;;4.38;1.88;;;10.20;80.50;;;;;;5091708;28;20192;-70
2023/04/15 07:51:31;;;;;;;3.35;1.80;;;10.50;81.40;;;;;;5092229;28;20220;-70
2023/04/15 07:53:58;;;;;;;4.50;1.85;;;10.70;77.90;;;;;;5091483;28;20211;-70
2023/04/15 07:56:25;;;;;;;3.38;1.88;;;10.90;77.00;;;;;;5092031;28;20189;-70
2023/04/15 07:58:53;;;;;;;3.80;2.38;;;11.00;78.00;;;;;;5091674;28;20189;-70
2023/04/15 08:01:20;;;;;;;3.80;1.70;;;11.20;78.30;;;;;;5091701;28;20193;-70
2023/04/15 08:03:49;;;;;;;5.57;2.13;;;11.40;75.80;;;;;;5091736;28;20520;-70
2023/04/15 08:06:16;;;;;;;2.97;1.88;;;11.50;75.40;;;;;;5093276;28;20242;-70
2023/04/15 08:08:43;;;;;;;3.25;1.75;;;11.50;75.60;;;;;;5096535;28;20606;-70
2023/04/15 08:11:11;;;;;;;7.57;2.05;;;11.50;74.30;;;;;;5097498;28;20686;-70
2023/04/15 08:13:38;;;;;;;5.15;2.08;;;11.40;72.20;;;;;;5099539;28;20275;-70
2023/04/15 08:16:18;;;;;;;3.83;1.85;;;11.40;68.20;;;;;;5103089;28;20644;-70
2023/04/15 08:18:46;;;;;;;4.47;2.50;;;11.40;67.70;;;;;;5107331;28;20538;-69
2023/04/15 08:21:14;;;;;;;4.38;1.95;;;11.70;68.50;;;;;;5103166;28;20194;-71
2023/04/15 08:23:42;;;;;;;4.80;2.30;;;12.00;68.60;;;;;;5100142;28;20216;-70
2023/04/15 08:26:09;;;;;;;3.03;1.45;;;12.30;67.80;;;;;;5101048;28;20197;-71
2023/04/15 08:28:38;;;;;;;2.67;1.83;;;12.80;67.10;;;;;;5098759;28;20554;-70
2023/04/15 08:31:06;;;;;;;3.15;1.92;;;13.50;62.00;;;;;;5103080;28;20301;-70
2023/04/15 08:33:35;;;;;;;5.70;2.15;;;13.90;59.20;;;;;;5101740;28;20192;-70
2023/04/15 08:36:07;;;;;;;3.60;1.97;;;14.20;59.90;;;;;;5102397;28;20193;-70
2023/04/15 08:38:36;;;;;;;3.57;1.80;;;14.50;58.90;;;;;;5096603;28;20461;-71
2023/04/15 08:41:07;;;;;;;4.27;1.70;;;14.80;56.20;;;;;;5102259;28;20438;-70
2023/04/15 08:43:35;;;;;;;2.63;1.20;;;14.90;58.30;;;;;;5103301;28;20477;-70
2023/04/15 08:46:04;;;;;;;4.23;1.50;;;14.90;56.70;;;;;;5102866;28;20945;-70
2023/04/15 08:48:33;;;;;;;3.90;1.60;;;15.00;54.80;;;;;;5099407;28;20859;-70
2023/04/15 08:51:00;;;;;;;3.70;1.33;;;15.10;52.50;;;;;;5102051;28;20478;-70
2023/04/15 08:53:29;;;;;;;6.27;1.30;;;15.30;51.30;;;;;;5099195;28;20484;-72
2023/04/15 08:56:00;;;;;;;5.23;2.07;;;15.60;51.50;;;;;;5097312;28;20818;-70
2023/04/15 08:58:27;;;;;;;3.10;1.53;;;16.60;49.60;;;;;;5101141;28;21645;-70
2023/04/15 09:00:54;;;;;;;5.07;1.20;;;18.10;48.60;;;;;;5094865;28;20454;-70
2023/04/15 09:03:23;;;;;;;3.67;1.70;;;18.80;42.90;;;;;;5096064;28;20471;-70
2023/04/15 09:05:50;;;;;;;3.97;1.17;;;18.80;41.90;;;;;;5102537;28;20442;-71
2023/04/15 09:08:17;;;;;;;4.50;1.33;;;18.60;39.80;;;;;;5100539;28;20776;-71
2023/04/15 09:10:44;;;;;;;5.17;1.93;;;18.50;41.20;;;;;;5099736;28;20519;-71
2023/04/15 09:13:14;;;;;;;5.97;1.63;;;18.40;40.60;;;;;;5097813;28;20435;-71
2023/04/15 09:15:41;;;;;;;3.00;1.40;;;18.30;40.90;;;;;;5101580;28;21006;-72
2023/04/15 09:18:11;;;;;;;4.80;1.60;;;18.10;41.60;;;;;;5097329;28;20440;-71
2023/04/15 09:20:41;;;;;;;3.40;1.63;;;18.00;40.30;;;;;;5093281;28;20497;-72
2023/04/15 09:23:16;;;;;;;5.77;2.93;;;17.90;40.70;;;;;;5097460;28;20505;-71
2023/04/15 09:25:43;;;;;;;2.93;2.07;;;17.90;42.00;;;;;;5096039;28;20439;-71
2023/04/15 09:28:11;;;;;;;4.37;1.53;;;18.00;41.80;;;;;;5100205;28;20821;-71
2023/04/15 09:30:44;;;;;;;3.70;1.60;;;17.90;40.60;;;;;;5101102;28;20484;-70
2023/04/15 09:33:15;;;;;;;3.10;1.47;;;17.80;41.40;;;;;;5097834;28;20431;-72
2023/04/15 09:35:42;;;;;;;2.93;1.33;;;17.60;41.00;;;;;;5098397;28;20423;-70
2023/04/15 09:38:10;;;;;;;2.70;1.30;;;17.40;40.90;;;;;;5100897;28;20461;-70
2023/04/15 09:40:38;;;;;;;2.47;1.40;;;17.20;42.80;;;;;;5096582;28;20438;-70
2023/04/15 09:43:07;;;;;;;3.73;1.40;;;17.10;41.80;;;;;;5106049;28;20438;-72
2023/04/15 09:45:37;;;;;;;5.17;1.83;;;17.10;40.50;;;;;;5093090;28;20523;-70
2023/04/15 09:48:19;;;;;;;2.30;1.20;;;17.10;39.70;;;;;;5099384;28;20933;-70
2023/04/15 09:50:48;;;;;;;3.13;1.50;;;16.90;38.80;;;;;;5094035;28;20474;-71
2023/04/15 09:53:19;;;;;;;3.63;1.47;;;16.70;39.40;;;;;;5097893;28;20449;-70
2023/04/15 09:55:49;;;;;;;6.40;1.83;;;16.50;40.00;;;;;;5096000;28;20438;-70
2023/04/15 09:58:20;;;;;;;3.00;1.43;;;16.40;43.20;;;;;;5097185;28;20523;-70
2023/04/15 10:00:49;;;;;;;4.87;1.57;;;16.30;42.60;;;;;;5096854;28;20967;-70
2023/04/15 10:03:21;;;;;;;3.90;1.70;;;16.20;42.30;;;;;;5101079;28;20431;-70
2023/04/15 10:05:49;;;;;;;4.17;2.07;;;16.20;42.00;;;;;;5092953;28;20530;-70
2023/04/15 10:08:17;;;;;;;2.50;1.50;;;16.10;43.90;;;;;;5098145;28;20446;-71
2023/04/15 10:10:46;;;;;;;3.10;1.40;;;16.00;42.00;;;;;;5104600;28;20544;-70
2023/04/15 10:13:16;;;;;;;3.80;1.57;;;15.90;42.10;;;;;;5099900;28;20761;-70
2023/04/15 10:15:46;;;;;;;3.77;2.03;;;15.90;40.70;;;;;;5099572;28;20846;-71
2023/04/15 10:18:19;;;;;;;7.83;1.90;;;15.90;42.10;;;;;;5097562;28;20435;-71
2023/04/15 10:20:47;;;;;;;4.67;2.50;;;15.90;43.30;;;;;;5092348;28;20435;-71
2023/04/15 10:23:16;;;;;;;3.43;2.13;;;16.00;43.60;;;;;;5097015;28;20935;-71
2023/04/15 10:25:44;;;;;;;4.73;1.90;;;16.30;43.20;;;;;;5094980;28;20522;-71
2023/04/15 10:28:12;;;;;;;4.20;1.30;;;16.50;44.30;;;;;;5095932;28;20461;-71
2023/04/15 10:30:39;;;;;;;3.60;1.60;;;16.70;45.00;;;;;;5095083;28;21050;-70
2023/04/15 10:33:09;;;;;;;3.17;1.60;;;16.70;43.30;;;;;;5095260;28;20508;-71
2023/04/15 10:35:38;;;;;;;5.70;1.63;;;16.70;40.50;;;;;;5091108;28;20443;-70
2023/04/15 10:38:33;;;;;;;3.67;2.33;;;16.70;40.40;;;;;;5093985;28;20936;-71
2023/04/15 10:41:16;;;;;;;3.73;1.80;;;16.60;38.50;;;;;;5092442;28;20806;-70
2023/04/15 10:43:50;;;;;;;3.70;1.90;;;16.60;39.40;;;;;;5103692;28;20529;-71
2023/04/15 10:46:19;;;;;;;8.67;2.20;;;16.80;40.70;;;;;;5091531;28;20435;-71
2023/04/15 10:48:51;;;;;;;3.73;1.60;;;17.40;42.00;;;;;;5097415;28;20443;-70
2023/04/15 10:51:30;;;;;;;9.37;2.50;;;17.80;41.50;;;;;;5093548;28;20924;-71
2023/04/15 10:54:14;;;;;;;4.30;1.60;;;18.60;39.70;;;;;;5092687;28;20426;-70
2023/04/15 10:56:43;;;;;;;4.73;2.00;;;19.30;38.80;;;;;;5097492;28;20467;-71
2023/04/15 10:59:10;;;;;;;4.17;1.70;;;20.10;38.20;;;;;;5094106;28;20548;-71
2023/04/15 11:01:55;;;;;;;3.50;2.30;;;20.50;37.30;;;;;;5096214;28;20836;-71
2023/04/15 11:04:53;;;;;;;5.37;2.57;;;20.20;35.80;;;;;;5091856;28;20496;-70
2023/04/15 11:07:39;;;;;;;5.47;2.10;;;19.70;35.50;;;;;;5094566;28;20443;-71
2023/04/15 11:10:52;;;;;;;6.43;2.17;;;19.00;37.30;;;;;;5099085;28;20835;-70
2023/04/15 11:13:23;;;;;;;6.13;2.47;;;18.50;37.70;;;;;;5096444;28;20438;-71
2023/04/15 11:15:50;;;;;;;4.20;2.30;;;18.20;38.80;;;;;;5097858;28;20873;-71
2023/04/15 11:18:19;;;;;;;4.80;2.83;;;17.90;39.30;;;;;;5094375;28;20442;-71
2023/04/15 11:20:49;;;;;;;4.90;3.27;;;17.60;39.20;;;;;;5091244;28;20526;-70
2023/04/15 11:23:19;;;;;;;5.33;2.90;;;17.30;39.70;;;;;;5095518;28;20538;-69
2023/04/15 11:25:47;;;;;;;4.70;2.80;;;17.00;39.20;;;;;;5099746;28;20932;-70
2023/04/15 11:28:14;;;;;;;5.10;2.90;;;16.70;39.50;;;;;;5094017;28;20474;-72
2023/04/15 11:30:43;;;;;;;6.83;3.37;;;16.30;40.40;;;;;;5095140;28;20435;-72
2023/04/15 11:33:12;;;;;;;5.47;2.37;;;16.00;41.40;;;;;;5095485;28;20442;-71
2023/04/15 11:35:41;;;;;;;5.00;3.07;;;15.80;41.40;;;;;;5096602;28;20527;-70
2023/04/15 11:38:11;;;;;;;7.30;3.23;;;15.50;42.80;;;;;;5093317;28;20435;-71
2023/04/15 11:40:40;;;;;;;4.63;2.40;;;15.20;43.20;;;;;;5100096;28;20431;-70
2023/04/15 11:43:09;;;;;;;5.53;2.60;;;15.00;43.20;;;;;;5092335;28;20450;-70
2023/04/15 11:45:37;;;;;;;3.90;2.80;;;14.80;43.60;;;;;;5096242;28;20463;-70
2023/04/15 11:48:08;;;;;;;5.83;2.80;;;14.70;45.00;;;;;;5097544;28;20435;-70
2023/04/15 11:50:36;;;;;;;8.23;3.60;;;14.60;44.80;;;;;;5097001;28;20439;-70
2023/04/15 11:53:07;;;;;;;5.70;2.77;;;14.60;45.40;;;;;;5102499;28;20438;-70
2023/04/15 11:55:46;;;;;;;4.97;2.60;;;14.60;45.80;;;;;;5093974;28;20805;-71
2023/04/15 11:58:16;;;;;;;3.87;2.70;;;14.50;46.00;;;;;;5094995;28;20430;-70
2023/04/15 12:00:47;;;;;;;6.03;2.73;;;14.60;45.40;;;;;;5103829;28;20480;-70
2023/04/15 12:03:24;;;;;;;3.97;2.77;;;14.50;45.50;;;;;;5097358;28;20880;-70
2023/04/15 12:06:17;;;;;;;7.83;3.30;;;14.50;45.50;;;;;;5097626;28;20446;-71
2023/04/15 12:08:59;;;;;;;6.00;3.27;;;14.60;45.00;;;;;;5105554;28;20533;-71
2023/04/15 12:11:39;;;;;;;6.10;3.00;;;14.60;44.10;;;;;;5098093;28;20477;-71
2023/04/15 12:14:16;;;;;;;4.07;2.90;;;14.60;43.50;;;;;;5096608;28;20435;-69
2023/04/15 12:16:45;;;;;;;5.23;3.17;;;14.60;43.20;;;;;;5097342;28;20434;-71
2023/04/15 12:19:14;;;;;;;6.30;2.53;;;14.60;43.30;;;;;;5099850;28;20455;-71
2023/04/15 12:21:44;;;;;;;4.87;2.70;;;14.50;43.60;;;;;;5100195;28;20484;-71
2023/04/15 12:24:12;;;;;;;7.40;4.10;;;14.50;43.90;;;;;;5102585;28;20563;-70
2023/04/15 12:26:47;;;;;;;4.43;3.30;;;14.40;44.10;;;;;;5097988;28;20530;-71
2023/04/15 12:29:16;;;;;;;4.13;3.03;;;14.40;44.20;;;;;;5094535;28;20553;-71
2023/04/15 12:31:52;;;;;;;4.93;2.67;;;14.30;44.60;;;;;;5101850;28;20473;-70
2023/04/15 12:34:27;;;;;;;7.70;3.70;;;14.30;44.50;;;;;;5098625;28;20438;-70
2023/04/15 12:36:54;;;;;;;4.90;3.87;;;14.30;44.60;;;;;;5096468;28;20447;-70
2023/04/15 12:39:23;;;;;;;6.30;3.30;;;14.30;44.40;;;;;;5098004;28;20450;-71
2023/04/15 12:41:52;;;;;;;5.97;3.50;;;14.10;44.10;;;;;;5093885;28;20936;-71
2023/04/15 12:44:20;;;;;;;8.20;3.83;;;14.00;44.50;;;;;;5100741;28;20492;-71
2023/04/15 12:46:47;;;;;;;7.00;3.40;;;13.80;44.40;;;;;;5101409;28;20446;-71
2023/04/15 12:49:14;;;;;;;9.10;3.80;;;13.70;45.20;;;;;;5097190;28;20499;-71
2023/04/15 12:51:42;;;;;;;8.00;3.10;;;13.50;45.10;;;;;;5102442;28;20483;-71
2023/04/15 12:54:09;;;;;;;7.73;3.60;;;13.20;45.90;;;;;;5096674;28;20439;-70
2023/04/15 12:56:36;;;;;;;8.73;3.43;;;13.00;46.90;;;;;;5097655;28;20454;-70
2023/04/15 12:59:04;;;;;;;3.43;2.60;;;12.80;47.80;;;;;;5099324;28;20566;-71
2023/04/15 13:01:31;;;;;;;4.30;3.40;;;12.60;48.30;;;;;;5102432;28;20491;-70